Time;durP1;ratioP1;P1;durP2;ratioP2;P2;SDS_P1;SDS_P2;PMS_P1;PMS_P2;Temp;Humidity;BMP_temperature;BMP_pressure;BME280_temperature;BME280_humidity;BME280_pressure;Samples;Min_cycle;Max_cycle;Signal;HPM_P1;HPM_P2
2023/08/06 00:01:01;;;;;;;3.28;2.97;;;16.00;99.90;;;;;;5003294;28;20199;-29
2023/08/06 00:03:27;;;;;;;4.40;3.13;;;16.00;99.90;;;;;;4998075;28;20231;-29
2023/08/06 00:05:53;;;;;;;3.20;2.90;;;16.00;99.90;;;;;;4976758;28;20235;-29
2023/08/06 00:08:18;;;;;;;4.53;3.27;;;15.90;99.90;;;;;;4978992;28;20184;-29
2023/08/06 00:10:44;;;;;;;4.80;3.17;;;15.90;99.90;;;;;;5011915;28;20211;-29
2023/08/06 00:13:10;;;;;;;3.13;2.83;;;15.80;99.90;;;;;;4995645;28;20187;-29
2023/08/06 00:15:36;;;;;;;3.65;2.65;;;15.80;99.90;;;;;;4995860;28;20179;-29
2023/08/06 00:18:01;;;;;;;3.40;3.07;;;15.80;99.90;;;;;;4988202;28;20179;-29
2023/08/06 00:20:27;;;;;;;4.37;3.07;;;15.70;99.90;;;;;;5002339;28;20223;-29
2023/08/06 00:22:53;;;;;;;3.20;2.90;;;15.70;99.90;;;;;;4975721;28;20188;-29
2023/08/06 00:25:19;;;;;;;5.03;3.13;;;15.70;99.90;;;;;;4976119;28;20238;-29
2023/08/06 00:27:45;;;;;;;3.63;3.33;;;15.60;99.90;;;;;;4991721;28;20202;-29
2023/08/06 00:30:11;;;;;;;5.73;3.50;;;15.50;99.90;;;;;;5007639;28;20211;-28
2023/08/06 00:32:37;;;;;;;5.03;3.17;;;15.50;99.90;;;;;;4995953;28;20194;-29
2023/08/06 00:35:04;;;;;;;3.27;2.97;;;15.40;99.90;;;;;;4995961;28;20179;-29
2023/08/06 00:37:29;;;;;;;3.47;3.17;;;15.20;99.90;;;;;;4987022;28;20191;-29
2023/08/06 00:39:55;;;;;;;4.07;3.33;;;15.20;99.90;;;;;;5003966;28;20215;-29
2023/08/06 00:42:22;;;;;;;3.17;2.63;;;15.20;99.90;;;;;;4995962;28;20180;-29
2023/08/06 00:44:48;;;;;;;4.77;3.13;;;15.30;99.90;;;;;;4995200;28;20187;-29
2023/08/06 00:47:15;;;;;;;3.30;3.00;;;15.20;99.90;;;;;;5011688;28;20191;-29
2023/08/06 00:49:41;;;;;;;3.20;2.90;;;15.20;99.90;;;;;;4977435;28;20215;-29
2023/08/06 00:52:08;;;;;;;2.90;2.60;;;15.20;99.90;;;;;;5011021;28;20191;-29
2023/08/06 00:54:36;;;;;;;4.27;2.93;;;15.10;99.90;;;;;;4995623;28;20207;-29
2023/08/06 00:57:03;;;;;;;3.47;2.77;;;15.10;99.90;;;;;;4990511;28;20218;-29
2023/08/06 00:59:30;;;;;;;5.07;2.60;;;15.00;99.90;;;;;;4992374;28;20239;-29
2023/08/06 01:01:56;;;;;;;3.27;2.80;;;15.00;99.90;;;;;;4989948;28;20180;-29
2023/08/06 01:04:23;;;;;;;2.83;2.53;;;15.00;99.90;;;;;;4987747;28;20211;-29
2023/08/06 01:07:02;;;;;;;2.77;2.30;;;14.90;99.90;;;;;;5010776;28;20202;-28
2023/08/06 01:09:39;;;;;;;2.27;2.07;;;14.90;99.90;;;;;;5011337;28;20218;-29
2023/08/06 01:12:18;;;;;;;2.70;1.87;;;14.90;99.90;;;;;;4988209;28;20179;-29
2023/08/06 01:15:15;;;;;;;5.10;2.10;;;14.90;99.90;;;;;;4986584;28;20183;-29
2023/08/06 01:17:41;;;;;;;2.47;2.17;;;15.00;99.90;;;;;;5001407;28;20176;-29
2023/08/06 01:20:07;;;;;;;3.47;1.97;;;15.00;99.90;;;;;;4991164;28;20269;-29
2023/08/06 01:22:33;;;;;;;3.40;1.97;;;15.00;99.90;;;;;;4974623;28;20227;-29
2023/08/06 01:24:59;;;;;;;2.57;2.20;;;15.00;99.90;;;;;;4980555;28;20191;-29
2023/08/06 01:27:46;;;;;;;2.40;2.10;;;15.00;99.90;;;;;;4994880;28;20314;-29
2023/08/06 01:30:36;;;;;;;1.87;1.60;;;15.00;99.90;;;;;;4974537;28;20242;-29
2023/08/06 01:33:08;;;;;;;3.10;1.80;;;15.00;99.90;;;;;;4985382;28;20188;-29
2023/08/06 01:35:35;;;;;;;2.97;2.00;;;15.00;99.90;;;;;;4990608;28;20191;-29
2023/08/06 01:38:02;;;;;;;2.33;1.67;;;15.00;99.90;;;;;;4995597;28;20219;-29
2023/08/06 01:40:30;;;;;;;3.73;1.87;;;14.90;99.90;;;;;;4994888;28;20206;-29
2023/08/06 01:42:56;;;;;;;3.33;1.70;;;15.00;99.90;;;;;;4994819;28;20176;-29
2023/08/06 01:45:22;;;;;;;2.70;2.20;;;15.00;99.90;;;;;;4993977;28;20179;-29
2023/08/06 01:47:49;;;;;;;2.83;2.00;;;15.00;99.90;;;;;;4982869;28;20286;-29
2023/08/06 01:50:15;;;;;;;2.67;1.80;;;15.00;99.90;;;;;;4990492;28;20279;-29
2023/08/06 01:52:41;;;;;;;2.33;1.83;;;15.00;99.90;;;;;;5002470;28;20225;-29
2023/08/06 01:55:07;;;;;;;4.80;2.07;;;15.00;99.90;;;;;;4994152;28;20234;-29
2023/08/06 01:57:32;;;;;;;3.50;2.30;;;15.00;99.90;;;;;;4994143;28;20180;-29
2023/08/06 01:59:58;;;;;;;2.37;2.00;;;14.90;99.90;;;;;;4994248;28;20222;-29
2023/08/06 02:02:24;;;;;;;3.67;1.93;;;14.80;99.90;;;;;;4993841;28;20190;-29
2023/08/06 02:04:50;;;;;;;3.43;2.17;;;14.70;99.90;;;;;;4993646;28;20224;-29
2023/08/06 02:07:16;;;;;;;3.90;2.03;;;14.60;99.90;;;;;;4994137;28;20179;-29
2023/08/06 02:09:41;;;;;;;2.83;2.13;;;14.60;99.90;;;;;;4994092;28;20273;-29
2023/08/06 02:12:08;;;;;;;2.83;2.33;;;14.60;99.90;;;;;;4994314;28;20176;-29
2023/08/06 02:14:34;;;;;;;4.33;2.20;;;14.50;99.90;;;;;;4993809;28;20186;-29
2023/08/06 02:17:00;;;;;;;3.03;2.10;;;14.50;99.90;;;;;;4990149;28;20172;-29
2023/08/06 02:19:27;;;;;;;2.40;2.20;;;14.50;99.90;;;;;;4973341;28;20220;-28
2023/08/06 02:21:53;;;;;;;4.50;2.00;;;14.50;99.90;;;;;;4990162;28;20192;-29
2023/08/06 02:24:19;;;;;;;2.10;1.80;;;14.50;99.90;;;;;;4990778;28;20184;-29
2023/08/06 02:26:45;;;;;;;2.77;2.10;;;14.60;99.90;;;;;;4990345;28;20643;-29
2023/08/06 02:29:12;;;;;;;3.30;1.93;;;14.60;99.90;;;;;;4990287;28;20234;-29
2023/08/06 02:31:38;;;;;;;2.17;1.93;;;14.60;99.90;;;;;;4990382;28;20211;-29
2023/08/06 02:34:05;;;;;;;3.97;1.90;;;14.70;99.90;;;;;;4990012;28;20184;-29
2023/08/06 02:36:31;;;;;;;3.87;2.23;;;14.70;99.90;;;;;;5006263;28;20179;-29
2023/08/06 02:38:58;;;;;;;4.80;2.47;;;14.70;99.90;;;;;;4993187;28;20242;-29
2023/08/06 02:41:24;;;;;;;2.77;2.17;;;14.70;99.90;;;;;;5010119;28;20183;-29
2023/08/06 02:43:50;;;;;;;3.70;2.10;;;14.70;99.90;;;;;;4991968;28;20191;-29
2023/08/06 02:46:16;;;;;;;5.20;2.07;;;14.70;99.90;;;;;;4993733;28;20193;-29
2023/08/06 02:48:42;;;;;;;2.33;1.83;;;14.80;99.90;;;;;;4984683;28;20254;-29
2023/08/06 02:51:07;;;;;;;3.27;2.03;;;14.80;99.90;;;;;;5009807;28;20226;-29
2023/08/06 02:53:33;;;;;;;4.53;2.10;;;14.80;99.90;;;;;;4993146;28;20183;-29
2023/08/06 02:56:04;;;;;;;2.57;2.13;;;14.80;99.90;;;;;;4994010;28;20179;-29
2023/08/06 02:58:56;;;;;;;1.90;1.70;;;14.80;99.90;;;;;;5008016;28;20309;-29
2023/08/06 03:01:33;;;;;;;2.47;2.10;;;14.80;99.90;;;;;;4994677;28;20206;-29
2023/08/06 03:04:06;;;;;;;2.83;1.90;;;14.90;99.90;;;;;;4994388;28;20194;-29
2023/08/06 03:06:37;;;;;;;2.57;1.73;;;14.90;99.90;;;;;;4993918;28;20179;-28
2023/08/06 03:09:03;;;;;;;2.57;1.90;;;14.90;99.90;;;;;;4989933;28;20275;-29
2023/08/06 03:11:29;;;;;;;3.07;2.30;;;14.90;99.90;;;;;;4990017;28;20294;-29
2023/08/06 03:14:01;;;;;;;3.43;2.00;;;14.90;99.90;;;;;;4989886;28;20183;-28
2023/08/06 03:16:27;;;;;;;1.90;1.70;;;15.00;99.90;;;;;;5005931;28;20175;-29
2023/08/06 03:18:53;;;;;;;1.90;1.70;;;15.00;99.90;;;;;;4977032;28;20200;-29
2023/08/06 03:21:20;;;;;;;4.43;1.90;;;14.90;99.90;;;;;;4993456;28;20187;-29
2023/08/06 03:23:49;;;;;;;2.97;1.93;;;14.90;99.90;;;;;;4991548;28;20190;-29
2023/08/06 03:26:17;;;;;;;4.60;1.80;;;14.90;99.90;;;;;;5003143;28;20215;-29
2023/08/06 03:28:44;;;;;;;4.03;1.80;;;14.90;99.90;;;;;;4993233;28;20207;-29
2023/08/06 03:31:10;;;;;;;2.70;1.87;;;14.90;99.90;;;;;;4993227;28;20234;-28
2023/08/06 03:33:41;;;;;;;3.37;1.90;;;14.90;99.90;;;;;;4993748;28;20198;-29
2023/08/06 03:36:11;;;;;;;3.10;2.03;;;14.90;99.90;;;;;;4993598;28;20221;-29
2023/08/06 03:38:37;;;;;;;4.83;1.90;;;14.90;99.90;;;;;;5009100;28;20270;-29
2023/08/06 03:41:06;;;;;;;1.77;1.53;;;14.90;99.90;;;;;;4993590;28;20245;-29
2023/08/06 03:43:32;;;;;;;1.93;1.60;;;14.90;99.90;;;;;;4989367;28;20184;-29
2023/08/06 03:45:58;;;;;;;4.17;1.90;;;14.90;99.90;;;;;;4974287;28;20188;-29
2023/08/06 03:48:24;;;;;;;2.60;1.83;;;14.90;99.90;;;;;;5008744;28;20179;-29
2023/08/06 03:50:50;;;;;;;2.23;1.53;;;14.90;99.90;;;;;;4989642;28;20212;-28
2023/08/06 03:53:18;;;;;;;3.50;1.77;;;14.90;99.90;;;;;;4973558;28;20175;-29
2023/08/06 03:55:44;;;;;;;4.33;1.60;;;14.80;99.90;;;;;;4992868;28;20263;-29
2023/08/06 03:58:10;;;;;;;3.00;1.50;;;14.80;99.90;;;;;;4993477;28;20327;-29
2023/08/06 04:00:36;;;;;;;4.57;1.70;;;14.70;99.90;;;;;;5011269;28;20254;-29
2023/08/06 04:03:02;;;;;;;3.10;1.60;;;14.70;99.90;;;;;;4985715;28;20219;-29
2023/08/06 04:05:32;;;;;;;3.17;1.40;;;14.60;99.90;;;;;;4993000;28;20299;-29
2023/08/06 04:07:58;;;;;;;3.73;1.90;;;14.60;99.90;;;;;;4990948;28;20251;-28
2023/08/06 04:10:24;;;;;;;3.50;1.50;;;14.60;99.90;;;;;;4992400;28;20350;-29
2023/08/06 04:12:49;;;;;;;3.00;1.40;;;14.50;99.90;;;;;;5003291;28;20183;-29
2023/08/06 04:15:15;;;;;;;4.27;1.30;;;14.50;99.90;;;;;;4996109;28;20179;-29
2023/08/06 04:17:41;;;;;;;2.47;1.33;;;14.50;99.90;;;;;;4988100;28;20191;-29
2023/08/06 04:20:07;;;;;;;1.80;1.20;;;14.40;99.90;;;;;;4995830;28;20210;-29
2023/08/06 04:22:33;;;;;;;1.27;1.00;;;14.40;99.90;;;;;;4991671;28;20188;-29
2023/08/06 04:24:59;;;;;;;2.83;1.20;;;14.40;99.90;;;;;;4976797;28;20198;-29
2023/08/06 04:27:25;;;;;;;1.97;0.90;;;14.40;99.90;;;;;;4992523;28;20188;-29
2023/08/06 04:29:51;;;;;;;2.47;1.20;;;14.40;99.90;;;;;;4992737;28;20208;-29
2023/08/06 04:32:19;;;;;;;1.63;0.90;;;14.40;99.90;;;;;;4992021;28;20179;-29
2023/08/06 04:34:48;;;;;;;2.33;0.97;;;14.40;99.90;;;;;;4992348;28;20176;-29
2023/08/06 04:37:15;;;;;;;1.50;1.10;;;14.40;99.90;;;;;;5004922;28;20171;-29
2023/08/06 04:39:40;;;;;;;1.73;1.10;;;14.40;99.90;;;;;;4995212;28;20250;-29
2023/08/06 04:42:06;;;;;;;3.40;1.20;;;14.40;99.90;;;;;;4992602;28;20186;-29
2023/08/06 04:44:32;;;;;;;2.67;1.20;;;14.40;99.90;;;;;;4975752;28;20187;-29
2023/08/06 04:46:58;;;;;;;4.37;1.40;;;14.40;99.90;;;;;;4995771;28;20217;-29
2023/08/06 04:49:25;;;;;;;2.47;0.97;;;14.50;99.90;;;;;;5000349;28;20222;-29
2023/08/06 04:51:50;;;;;;;1.53;1.13;;;14.50;99.90;;;;;;4995410;28;20187;-29
2023/08/06 04:54:16;;;;;;;1.33;1.23;;;14.50;99.90;;;;;;4995346;28;20179;-29
2023/08/06 04:56:42;;;;;;;1.63;1.33;;;14.60;99.90;;;;;;4995589;28;20195;-28
2023/08/06 04:59:08;;;;;;;1.90;1.37;;;14.60;99.90;;;;;;4983909;28;20226;-28
2023/08/06 05:01:34;;;;;;;2.93;1.17;;;14.60;99.90;;;;;;4991735;28;20223;-28
2023/08/06 05:03:59;;;;;;;2.40;1.07;;;14.60;99.90;;;;;;4990225;28;20250;-28
2023/08/06 05:06:25;;;;;;;2.27;1.00;;;14.60;99.90;;;;;;4991280;28;20180;-28
2023/08/06 05:08:51;;;;;;;1.87;1.10;;;14.60;99.90;;;;;;5008851;28;20203;-30
2023/08/06 05:11:17;;;;;;;2.70;1.10;;;14.50;99.90;;;;;;4994204;28;20246;-28
2023/08/06 05:13:42;;;;;;;3.80;1.13;;;14.60;99.90;;;;;;4994418;28;20179;-28
2023/08/06 05:16:08;;;;;;;3.40;1.20;;;14.60;99.90;;;;;;4993555;28;20218;-29
2023/08/06 05:18:34;;;;;;;2.87;1.13;;;14.60;99.90;;;;;;4986896;28;20186;-29
2023/08/06 05:21:00;;;;;;;4.27;1.43;;;14.60;99.90;;;;;;4991738;28;20216;-29
2023/08/06 05:23:26;;;;;;;3.73;1.33;;;14.60;99.90;;;;;;4991775;28;20190;-29
2023/08/06 05:25:51;;;;;;;1.60;0.90;;;14.70;99.90;;;;;;4990716;28;20192;-29
2023/08/06 05:28:17;;;;;;;1.70;1.10;;;14.70;99.90;;;;;;4991831;28;20188;-29
2023/08/06 05:30:43;;;;;;;2.33;0.80;;;14.70;99.90;;;;;;4998459;28;20206;-29
2023/08/06 05:33:09;;;;;;;2.83;0.90;;;14.70;99.90;;;;;;5010884;28;20199;-29
2023/08/06 05:35:35;;;;;;;2.43;1.00;;;14.70;99.90;;;;;;4994412;28;20190;-29
2023/08/06 05:38:01;;;;;;;3.27;1.07;;;14.70;99.90;;;;;;4994467;28;20183;-31
2023/08/06 05:40:27;;;;;;;2.27;0.80;;;14.70;99.90;;;;;;4994026;28;20214;-28
2023/08/06 05:42:55;;;;;;;2.97;1.07;;;14.70;99.90;;;;;;4994734;28;20237;-28
2023/08/06 05:45:21;;;;;;;1.10;0.90;;;14.70;99.90;;;;;;4994673;28;20218;-29
2023/08/06 05:47:50;;;;;;;1.30;0.90;;;14.70;99.90;;;;;;4986730;28;20226;-28
2023/08/06 05:50:16;;;;;;;1.30;0.77;;;14.70;99.90;;;;;;4986570;28;20203;-29
2023/08/06 05:52:42;;;;;;;1.87;0.97;;;14.70;99.90;;;;;;4994230;28;20195;-28
2023/08/06 05:55:08;;;;;;;2.03;0.87;;;14.70;99.90;;;;;;4983761;28;20191;-27
2023/08/06 05:57:34;;;;;;;1.77;0.57;;;14.70;99.90;;;;;;4991235;28;20187;-28
2023/08/06 06:00:00;;;;;;;2.27;0.93;;;14.80;99.90;;;;;;5007977;28;20223;-28
2023/08/06 06:02:26;;;;;;;1.50;0.80;;;14.80;99.90;;;;;;4994433;28;20274;-28
2023/08/06 06:04:52;;;;;;;1.90;0.70;;;14.80;99.90;;;;;;4993070;28;20277;-27
2023/08/06 06:07:18;;;;;;;2.30;1.00;;;14.80;99.90;;;;;;4993808;28;20262;-28
2023/08/06 06:09:44;;;;;;;1.70;0.90;;;14.90;99.90;;;;;;5010626;28;20215;-29
2023/08/06 06:12:10;;;;;;;1.33;0.90;;;14.90;99.90;;;;;;5010481;28;20183;-28
2023/08/06 06:14:36;;;;;;;1.80;1.00;;;14.90;99.90;;;;;;4992826;28;20171;-28
2023/08/06 06:17:01;;;;;;;1.67;0.90;;;14.90;99.90;;;;;;4992441;28;20209;-29
2023/08/06 06:19:27;;;;;;;1.37;0.70;;;14.90;99.90;;;;;;4990795;28;20207;-28
2023/08/06 06:21:53;;;;;;;1.57;0.90;;;14.90;99.90;;;;;;4990570;28;20183;-28
2023/08/06 06:24:19;;;;;;;1.97;0.80;;;14.90;99.90;;;;;;4993668;28;20295;-28
2023/08/06 06:26:45;;;;;;;1.83;0.80;;;14.90;99.90;;;;;;4993859;28;20190;-28
2023/08/06 06:29:10;;;;;;;1.73;0.83;;;14.80;99.90;;;;;;4993342;28;20215;-28
2023/08/06 06:31:36;;;;;;;0.80;0.60;;;14.80;99.90;;;;;;4993814;28;20298;-28
2023/08/06 06:34:02;;;;;;;1.20;0.70;;;14.80;99.90;;;;;;4993848;28;20668;-28
2023/08/06 06:36:28;;;;;;;0.63;0.53;;;14.70;99.90;;;;;;4993724;28;20191;-28
2023/08/06 06:38:54;;;;;;;0.70;0.70;;;14.70;99.90;;;;;;5001159;28;20203;-27
2023/08/06 06:41:19;;;;;;;0.83;0.70;;;14.70;99.90;;;;;;4990455;28;20178;-27
2023/08/06 06:43:45;;;;;;;2.20;0.60;;;14.70;99.90;;;;;;4993123;28;20282;-28
2023/08/06 06:46:11;;;;;;;0.60;0.53;;;14.70;99.90;;;;;;4993091;28;20321;-28
2023/08/06 06:48:37;;;;;;;1.03;0.60;;;14.70;99.90;;;;;;4993384;28;20202;-29
2023/08/06 06:51:03;;;;;;;1.30;0.70;;;14.70;99.90;;;;;;4990357;28;20250;-28
2023/08/06 06:53:29;;;;;;;0.77;0.57;;;14.70;99.90;;;;;;4990461;28;20190;-28
2023/08/06 06:55:55;;;;;;;1.53;0.60;;;14.70;99.90;;;;;;4989773;28;20190;-28
2023/08/06 06:58:21;;;;;;;1.43;0.60;;;14.80;99.90;;;;;;4990459;28;20175;-28
2023/08/06 07:00:48;;;;;;;0.80;0.57;;;14.80;99.90;;;;;;5000852;28;20292;-29
2023/08/06 07:03:18;;;;;;;0.50;0.50;;;14.80;99.90;;;;;;4986019;28;20206;-29
2023/08/06 07:05:44;;;;;;;1.00;0.50;;;14.80;99.90;;;;;;4983516;28;20189;-30
2023/08/06 07:08:10;;;;;;;1.10;0.87;;;14.80;99.90;;;;;;4993352;28;20507;-30
2023/08/06 07:10:36;;;;;;;1.13;0.90;;;14.70;99.90;;;;;;4985243;28;20203;-29
2023/08/06 07:13:02;;;;;;;0.60;0.60;;;14.70;99.90;;;;;;4992994;28;20183;-29
2023/08/06 07:15:28;;;;;;;0.77;0.50;;;14.60;99.90;;;;;;4991567;28;20175;-29
2023/08/06 07:17:53;;;;;;;1.60;0.67;;;14.50;99.90;;;;;;4985583;28;20180;-29
2023/08/06 07:20:19;;;;;;;0.57;0.57;;;14.60;99.90;;;;;;4988815;28;20208;-29
2023/08/06 07:22:45;;;;;;;1.03;0.53;;;14.60;99.90;;;;;;4973765;28;20200;-29
2023/08/06 07:25:11;;;;;;;1.53;0.40;;;14.70;99.90;;;;;;4976361;28;20184;-29
2023/08/06 07:27:37;;;;;;;0.53;0.50;;;14.70;99.90;;;;;;5011810;28;20179;-30
2023/08/06 07:30:05;;;;;;;0.90;0.50;;;14.70;99.90;;;;;;4994941;28;20265;-29
2023/08/06 07:32:33;;;;;;;0.63;0.40;;;14.80;99.90;;;;;;4979670;28;20211;-29
2023/08/06 07:35:04;;;;;;;0.80;0.40;;;14.90;99.90;;;;;;4993751;28;20188;-30
2023/08/06 07:37:30;;;;;;;0.50;0.40;;;15.00;99.90;;;;;;4966206;28;20191;-28
2023/08/06 07:39:58;;;;;;;0.70;0.53;;;15.00;99.90;;;;;;4995717;28;20209;-29
2023/08/06 07:42:24;;;;;;;0.67;0.60;;;15.00;99.90;;;;;;4996699;28;20194;-28
2023/08/06 07:44:55;;;;;;;1.30;0.40;;;15.00;99.90;;;;;;4992562;28;20326;-29
2023/08/06 07:47:22;;;;;;;0.40;0.40;;;15.00;99.90;;;;;;5012645;28;20194;-29
2023/08/06 07:49:48;;;;;;;0.40;0.40;;;15.00;99.90;;;;;;4996442;28;20214;-29
2023/08/06 07:52:22;;;;;;;0.63;0.30;;;15.00;99.90;;;;;;5012958;28;20179;-29
2023/08/06 07:54:48;;;;;;;0.43;0.40;;;15.10;99.90;;;;;;4996106;28;20226;-29
2023/08/06 07:57:15;;;;;;;0.50;0.40;;;15.20;99.90;;;;;;4985410;28;20273;-29
2023/08/06 07:59:41;;;;;;;0.23;0.23;;;15.20;99.90;;;;;;4993150;28;20216;-29
2023/08/06 08:02:06;;;;;;;0.50;0.50;;;15.20;99.90;;;;;;5002426;28;20191;-29
2023/08/06 08:04:32;;;;;;;0.40;0.40;;;15.10;99.90;;;;;;4996034;28;20278;-28
2023/08/06 08:06:58;;;;;;;0.40;0.40;;;15.00;99.90;;;;;;4996404;28;20322;-29
2023/08/06 08:09:24;;;;;;;0.30;0.30;;;15.00;99.90;;;;;;4996443;28;20234;-29
2023/08/06 08:11:50;;;;;;;0.40;0.40;;;14.90;99.90;;;;;;4989663;28;20187;-29
2023/08/06 08:14:16;;;;;;;0.33;0.33;;;14.80;99.90;;;;;;4994005;28;20189;-29
2023/08/06 08:16:42;;;;;;;0.57;0.30;;;14.80;99.90;;;;;;5012193;28;20180;-29
2023/08/06 08:19:08;;;;;;;0.30;0.30;;;14.80;99.90;;;;;;4987499;28;20203;-29
2023/08/06 08:21:33;;;;;;;1.10;0.40;;;14.80;99.90;;;;;;4999741;28;20192;-29
2023/08/06 08:24:01;;;;;;;1.47;0.40;;;14.80;99.90;;;;;;5008331;28;20270;-29
2023/08/06 08:26:29;;;;;;;0.20;0.20;;;14.80;99.90;;;;;;4992248;28;20239;-29
2023/08/06 08:28:56;;;;;;;0.30;0.30;;;14.90;99.90;;;;;;4994890;28;20219;-29
2023/08/06 08:31:22;;;;;;;0.47;0.40;;;15.00;99.90;;;;;;4993057;28;20216;-29
2023/08/06 08:33:48;;;;;;;0.43;0.33;;;15.00;99.90;;;;;;5002752;28;20269;-29
2023/08/06 08:36:14;;;;;;;0.40;0.40;;;15.20;99.90;;;;;;4989504;28;20271;-29
2023/08/06 08:38:43;;;;;;;0.30;0.30;;;15.20;99.90;;;;;;4992769;28;20204;-29
2023/08/06 08:41:15;;;;;;;0.40;0.40;;;15.30;99.90;;;;;;4994782;28;20187;-28
2023/08/06 08:43:44;;;;;;;0.30;0.30;;;15.20;99.90;;;;;;4995602;28;20204;-28
2023/08/06 08:46:13;;;;;;;0.43;0.33;;;15.30;99.90;;;;;;5010217;28;20282;-29
2023/08/06 08:48:39;;;;;;;0.30;0.30;;;15.30;99.90;;;;;;5005564;28;20183;-29
2023/08/06 08:51:07;;;;;;;0.30;0.30;;;15.20;99.90;;;;;;4976583;28;20215;-29
2023/08/06 08:53:39;;;;;;;0.30;0.30;;;15.20;99.90;;;;;;4988174;28;20190;-29
2023/08/06 08:56:06;;;;;;;1.17;0.40;;;15.30;99.90;;;;;;5010907;28;20180;-29
2023/08/06 08:58:32;;;;;;;0.30;0.30;;;15.30;99.90;;;;;;4995288;28;20180;-29
2023/08/06 09:00:59;;;;;;;1.40;0.50;;;15.30;99.90;;;;;;4990724;28;20187;-29
2023/08/06 09:03:25;;;;;;;0.37;0.30;;;15.30;99.90;;;;;;4998050;28;20246;-28
2023/08/06 09:05:54;;;;;;;0.40;0.33;;;15.30;99.90;;;;;;4992088;28;20240;-29
2023/08/06 09:08:24;;;;;;;0.37;0.37;;;15.40;99.90;;;;;;4992171;28;20180;-29
2023/08/06 09:10:52;;;;;;;1.70;0.40;;;15.50;99.90;;;;;;5004355;28;20203;-28
2023/08/06 09:13:19;;;;;;;0.33;0.33;;;15.60;99.90;;;;;;4985500;28;20192;-29
2023/08/06 09:15:46;;;;;;;0.40;0.30;;;15.60;99.90;;;;;;4991593;28;20215;-28
2023/08/06 09:18:12;;;;;;;0.40;0.40;;;15.60;99.90;;;;;;4992660;28;20207;-29
2023/08/06 09:20:41;;;;;;;0.40;0.40;;;15.70;99.90;;;;;;4995153;28;20203;-29
2023/08/06 09:23:10;;;;;;;0.30;0.30;;;15.90;99.90;;;;;;4986657;28;20195;-29
2023/08/06 09:25:41;;;;;;;1.00;0.30;;;16.00;99.90;;;;;;4991725;28;20184;-29
2023/08/06 09:28:07;;;;;;;0.63;0.40;;;16.10;99.90;;;;;;4992439;28;20231;-29
2023/08/06 09:30:35;;;;;;;0.30;0.30;;;16.10;99.90;;;;;;4994173;28;20241;-29
2023/08/06 09:33:01;;;;;;;0.53;0.50;;;16.00;99.90;;;;;;4995062;28;20183;-29
2023/08/06 09:35:31;;;;;;;0.27;0.20;;;15.80;99.90;;;;;;4994358;28;20176;-29
2023/08/06 09:38:08;;;;;;;0.47;0.40;;;15.70;99.90;;;;;;4994736;28;20187;-29
2023/08/06 09:40:34;;;;;;;0.30;0.30;;;15.50;99.90;;;;;;4989808;28;20278;-29
2023/08/06 09:43:00;;;;;;;0.30;0.30;;;15.30;99.90;;;;;;5010467;28;20282;-29
2023/08/06 09:45:34;;;;;;;0.87;0.40;;;15.40;99.90;;;;;;4991206;28;20175;-29
2023/08/06 09:48:12;;;;;;;0.40;0.30;;;15.30;99.90;;;;;;4996880;28;20192;-29
2023/08/06 09:50:41;;;;;;;0.30;0.30;;;15.30;99.90;;;;;;4993181;28;20242;-29
2023/08/06 09:53:10;;;;;;;1.27;0.70;;;15.30;99.90;;;;;;4987261;28;20212;-30
2023/08/06 09:55:37;;;;;;;2.90;0.80;;;15.30;99.90;;;;;;4986102;28;20180;-29
2023/08/06 09:58:06;;;;;;;1.10;0.57;;;15.10;99.90;;;;;;4990668;28;20206;-30
2023/08/06 10:00:34;;;;;;;0.70;0.47;;;15.10;99.90;;;;;;4992543;28;20226;-29
2023/08/06 10:03:02;;;;;;;0.30;0.30;;;15.10;99.90;;;;;;5005409;28;20179;-29
2023/08/06 10:05:32;;;;;;;0.70;0.50;;;15.00;99.90;;;;;;5009093;28;20203;-29
2023/08/06 10:08:01;;;;;;;0.50;0.50;;;15.00;99.90;;;;;;4993867;28;20187;-29
2023/08/06 10:10:29;;;;;;;0.40;0.40;;;15.00;99.90;;;;;;4983581;28;20207;-29
2023/08/06 10:12:58;;;;;;;0.40;0.40;;;14.90;99.90;;;;;;4995969;28;20249;-29
2023/08/06 10:15:26;;;;;;;1.60;0.50;;;14.90;99.90;;;;;;4984136;28;20187;-29
2023/08/06 10:17:58;;;;;;;1.90;0.50;;;14.90;99.90;;;;;;5003356;28;20210;-29
2023/08/06 10:20:25;;;;;;;0.40;0.40;;;15.00;99.90;;;;;;4999607;28;20211;-29
2023/08/06 10:23:06;;;;;;;0.40;0.40;;;15.10;99.90;;;;;;4988838;28;20196;-30
2023/08/06 10:25:35;;;;;;;0.20;0.20;;;15.20;99.90;;;;;;5000477;28;20187;-29
2023/08/06 10:28:09;;;;;;;0.30;0.30;;;15.20;99.90;;;;;;4987783;28;20274;-28
2023/08/06 10:30:46;;;;;;;0.30;0.30;;;15.30;99.90;;;;;;4993358;28;20233;-28
2023/08/06 10:33:13;;;;;;;0.30;0.30;;;15.30;99.90;;;;;;4983517;28;20250;-28
2023/08/06 10:35:49;;;;;;;1.33;0.30;;;15.40;99.90;;;;;;4990178;28;20180;-28
2023/08/06 10:38:25;;;;;;;0.30;0.30;;;15.30;99.90;;;;;;4993324;28;20271;-28
2023/08/06 10:40:54;;;;;;;0.40;0.40;;;15.30;99.90;;;;;;4983725;28;20188;-29
2023/08/06 10:43:31;;;;;;;0.30;0.30;;;15.30;99.90;;;;;;4996354;28;20206;-28
2023/08/06 10:46:03;;;;;;;0.30;0.30;;;15.30;99.90;;;;;;4986533;28;20229;-28
2023/08/06 10:48:41;;;;;;;0.30;0.30;;;15.30;99.90;;;;;;4985412;28;20258;-28
2023/08/06 10:51:15;;;;;;;0.43;0.30;;;15.30;99.90;;;;;;5009716;28;20211;-28
2023/08/06 10:53:48;;;;;;;1.23;0.30;;;15.30;99.90;;;;;;5009377;28;20175;-28
2023/08/06 10:56:14;;;;;;;0.83;0.30;;;15.30;99.90;;;;;;4993451;28;20183;-28
2023/08/06 10:58:42;;;;;;;0.30;0.30;;;15.30;99.90;;;;;;4985384;28;20275;-29
2023/08/06 11:01:12;;;;;;;1.70;0.23;;;15.30;99.90;;;;;;5003684;28;20196;-28
2023/08/06 11:03:42;;;;;;;0.40;0.40;;;15.10;99.90;;;;;;4993842;28;20187;-28
2023/08/06 11:06:08;;;;;;;0.73;0.30;;;15.10;99.90;;;;;;4982317;28;20195;-28
2023/08/06 11:08:36;;;;;;;0.60;0.40;;;15.10;99.90;;;;;;4994112;28;20192;-28
2023/08/06 11:11:13;;;;;;;0.60;0.40;;;15.10;99.90;;;;;;4994491;28;20211;-28
2023/08/06 11:13:40;;;;;;;0.30;0.30;;;15.00;99.90;;;;;;5004904;28;20275;-28
2023/08/06 11:16:06;;;;;;;0.53;0.30;;;15.00;99.90;;;;;;4993922;28;20218;-28
2023/08/06 11:18:34;;;;;;;0.47;0.40;;;15.10;99.90;;;;;;4991288;28;20187;-29
2023/08/06 11:21:00;;;;;;;0.50;0.40;;;15.10;99.90;;;;;;5010799;28;20179;-28
2023/08/06 11:23:30;;;;;;;0.40;0.40;;;15.10;99.90;;;;;;5002673;28;20192;-28
2023/08/06 11:25:59;;;;;;;0.83;0.43;;;15.20;99.90;;;;;;4993648;28;20180;-28
2023/08/06 11:28:25;;;;;;;0.73;0.37;;;15.20;99.90;;;;;;4997501;28;20278;-28
2023/08/06 11:30:56;;;;;;;1.60;0.50;;;15.20;99.90;;;;;;4993561;28;20234;-28
2023/08/06 11:33:26;;;;;;;0.60;0.60;;;15.20;99.90;;;;;;4992149;28;20265;-29
2023/08/06 11:35:56;;;;;;;0.40;0.40;;;15.20;99.90;;;;;;4984271;28;20288;-28
2023/08/06 11:38:27;;;;;;;0.77;0.57;;;15.30;99.90;;;;;;4960793;28;20196;-29
2023/08/06 11:40:53;;;;;;;1.63;0.60;;;15.30;99.90;;;;;;5006293;28;20274;-28
2023/08/06 11:43:22;;;;;;;0.70;0.50;;;15.50;99.90;;;;;;4996185;28;20270;-30
2023/08/06 11:45:53;;;;;;;0.97;0.40;;;15.60;99.90;;;;;;4987289;28;20279;-29
2023/08/06 11:48:19;;;;;;;0.60;0.50;;;15.70;99.90;;;;;;5003128;28;20187;-29
2023/08/06 11:50:48;;;;;;;1.80;0.50;;;15.70;99.90;;;;;;4993075;28;20265;-27
2023/08/06 11:53:15;;;;;;;0.50;0.50;;;15.80;99.90;;;;;;4992859;28;20211;-28
2023/08/06 11:55:41;;;;;;;0.50;0.50;;;15.80;99.90;;;;;;4985163;28;20180;-28
2023/08/06 11:58:07;;;;;;;0.40;0.40;;;15.90;99.90;;;;;;5012289;28;20276;-28
2023/08/06 12:00:33;;;;;;;0.90;0.60;;;15.80;99.90;;;;;;5009248;28;20215;-29
2023/08/06 12:03:00;;;;;;;0.40;0.40;;;15.90;99.90;;;;;;5004805;28;20192;-29
2023/08/06 12:05:33;;;;;;;0.50;0.50;;;15.90;99.90;;;;;;5008497;28;20194;-29
2023/08/06 12:08:01;;;;;;;0.47;0.47;;;15.90;99.90;;;;;;4987684;28;20247;-29
2023/08/06 12:10:30;;;;;;;0.80;0.70;;;15.80;99.90;;;;;;5003525;28;20211;-29
2023/08/06 12:12:56;;;;;;;0.63;0.60;;;15.70;99.90;;;;;;4984740;28;20235;-29
2023/08/06 12:15:23;;;;;;;1.07;0.83;;;15.70;99.90;;;;;;4993041;28;20234;-29
2023/08/06 12:17:49;;;;;;;1.20;0.90;;;15.70;99.90;;;;;;4989357;28;20187;-29
2023/08/06 12:20:16;;;;;;;2.30;1.10;;;15.80;99.90;;;;;;4987479;28;20274;-29
2023/08/06 12:22:42;;;;;;;1.20;1.00;;;15.80;99.90;;;;;;4976062;28;20218;-29
2023/08/06 12:25:12;;;;;;;2.07;1.00;;;15.90;99.90;;;;;;4993132;28;20191;-29
2023/08/06 12:27:43;;;;;;;1.07;0.97;;;15.90;99.90;;;;;;5006625;28;20191;-29
2023/08/06 12:30:13;;;;;;;1.63;0.87;;;15.90;99.90;;;;;;4976986;28;20211;-29
2023/08/06 12:32:39;;;;;;;1.53;1.10;;;16.00;99.90;;;;;;4976347;28;20180;-29
2023/08/06 12:35:07;;;;;;;0.87;0.80;;;16.00;99.90;;;;;;4992874;28;20203;-29
2023/08/06 12:37:34;;;;;;;1.53;0.80;;;16.00;99.90;;;;;;5000889;28;20225;-29
2023/08/06 12:40:00;;;;;;;1.23;0.80;;;16.00;99.90;;;;;;4996072;28;20279;-28
2023/08/06 12:42:26;;;;;;;1.10;0.80;;;15.90;99.90;;;;;;4985282;28;20188;-29
2023/08/06 12:44:52;;;;;;;1.67;0.73;;;15.90;99.90;;;;;;4991850;28;20188;-29
2023/08/06 12:47:19;;;;;;;0.73;0.73;;;15.90;99.90;;;;;;4975883;28;20188;-29
2023/08/06 12:49:46;;;;;;;0.83;0.83;;;15.90;99.90;;;;;;4985637;28;20294;-29